Terminal Aerodrome Forecast
Issued by NWS

Home | Current Version | Previous Version | Text Only | Print | Product List | Glossary On
Versions: 1 2 3 4 5 6 7 8 9 10 11 12 13 14 15 16 17 18 19 20
000
FTUS43 KOAX 070520
TAFCDR
TAF
KCDR 070520Z 0706/0806 28010KT 6SM -RA BR OVC010
     FM071500 30010KT P6SM OVC025
     FM072000 02010KT P6SM VCSH OVC050
     FM080200 05007KT P6SM BKN050=

USA.gov is the U.S. government's official web portal to all federal, state and local government web resources and services.